Time;durP1;ratioP1;P1;durP2;ratioP2;P2;SDS_P1;SDS_P2;PMS_P1;PMS_P2;Temp;Humidity;BMP_temperature;BMP_pressure;BME280_temperature;BME280_humidity;BME280_pressure;Samples;Min_cycle;Max_cycle;Signal;HPM_P1;HPM_P2
2022/07/27 00:00:36;;;;;;;7.20;3.60;;;11.20;99.90;;;;;;5009267;28;20029;-82
2022/07/27 00:03:01;;;;;;;4.35;3.00;;;11.20;99.90;;;;;;5008766;28;20088;-82
2022/07/27 00:05:27;;;;;;;5.20;3.30;;;11.20;99.90;;;;;;4999712;28;20041;-82
2022/07/27 00:07:53;;;;;;;5.88;3.42;;;11.20;99.90;;;;;;4999766;28;20111;-82
2022/07/27 00:10:18;;;;;;;3.25;2.95;;;11.20;99.90;;;;;;5022665;28;20037;-81
2022/07/27 00:12:44;;;;;;;5.10;3.13;;;11.20;99.90;;;;;;4999555;28;20068;-81
2022/07/27 00:15:11;;;;;;;5.32;3.20;;;11.20;99.90;;;;;;5004541;28;20040;-81
2022/07/27 00:17:37;;;;;;;5.05;2.97;;;11.20;99.90;;;;;;5010725;28;20033;-81
2022/07/27 00:20:03;;;;;;;6.18;3.30;;;11.20;99.90;;;;;;5004212;28;20029;-82
2022/07/27 00:22:28;;;;;;;6.05;3.50;;;11.10;99.90;;;;;;5002825;28;20041;-82
2022/07/27 00:24:54;;;;;;;5.32;3.60;;;11.10;99.90;;;;;;5016167;28;20376;-82
2022/07/27 00:27:20;;;;;;;4.28;3.10;;;11.10;99.90;;;;;;5002923;28;20077;-83
2022/07/27 00:29:45;;;;;;;5.70;3.80;;;11.00;99.90;;;;;;5020445;28;20046;-83
2022/07/27 00:32:11;;;;;;;6.78;4.60;;;11.00;99.90;;;;;;4986962;28;20045;-83
2022/07/27 00:34:37;;;;;;;7.65;4.50;;;11.00;99.90;;;;;;4994964;28;20052;-82
2022/07/27 00:37:03;;;;;;;5.97;4.35;;;10.90;99.90;;;;;;5006431;28;20484;-82
2022/07/27 00:39:29;;;;;;;5.50;3.90;;;10.90;99.90;;;;;;5014870;28;20365;-81
2022/07/27 00:41:54;;;;;;;5.40;4.10;;;10.80;99.90;;;;;;5014013;28;20037;-83
2022/07/27 00:44:28;;;;;;;6.43;4.40;;;10.80;99.90;;;;;;5019751;28;20045;-83
2022/07/27 00:46:57;;;;;;;5.85;4.55;;;10.80;99.90;;;;;;4998855;28;20213;-83
2022/07/27 00:49:25;;;;;;;7.20;4.35;;;10.70;99.90;;;;;;5005623;28;20079;-82
2022/07/27 00:51:52;;;;;;;5.10;4.50;;;10.70;99.90;;;;;;5010545;28;20045;-82
2022/07/27 00:54:19;;;;;;;5.97;4.15;;;10.70;99.90;;;;;;5021369;28;20443;-82
2022/07/27 00:56:45;;;;;;;6.50;4.72;;;10.70;99.90;;;;;;4996903;28;20042;-82
2022/07/27 00:59:12;;;;;;;7.68;5.38;;;10.70;99.90;;;;;;5019677;28;20037;-82
2022/07/27 01:01:38;;;;;;;6.43;4.53;;;10.70;99.90;;;;;;5017255;28;20132;-82
2022/07/27 01:04:04;;;;;;;8.18;5.38;;;10.70;99.90;;;;;;4997939;28;20551;-83
2022/07/27 01:06:31;;;;;;;8.27;5.00;;;10.70;99.90;;;;;;4990014;28;20034;-83
2022/07/27 01:11:43;;;;;;;8.13;5.90;;;10.70;99.90;;;;;;5026649;28;20403;-82
2022/07/27 01:14:10;;;;;;;8.40;5.88;;;10.70;99.90;;;;;;5004016;28;20063;-83
2022/07/27 01:16:36;;;;;;;7.05;5.90;;;10.70;99.90;;;;;;4982333;28;20113;-83
2022/07/27 01:19:02;;;;;;;10.75;6.20;;;10.80;99.90;;;;;;5002524;28;20120;-82
2022/07/27 01:21:28;;;;;;;8.05;5.45;;;10.80;99.90;;;;;;5026606;28;20037;-82
2022/07/27 01:23:53;;;;;;;8.00;5.38;;;10.80;99.90;;;;;;5029593;28;20056;-83
2022/07/27 01:26:19;;;;;;;6.25;5.07;;;10.90;99.90;;;;;;4990210;28;20036;-83
2022/07/27 01:28:45;;;;;;;5.32;4.38;;;10.80;99.90;;;;;;5016007;28;20048;-82
2022/07/27 01:31:11;;;;;;;5.60;3.90;;;10.80;99.90;;;;;;5016489;28;20482;-83
2022/07/27 01:33:36;;;;;;;6.40;3.78;;;10.90;99.90;;;;;;5015945;28;20088;-83
2022/07/27 01:36:03;;;;;;;6.68;4.15;;;10.90;99.90;;;;;;5010237;28;20087;-83
2022/07/27 01:38:28;;;;;;;6.47;3.95;;;10.90;99.90;;;;;;4994300;28;20034;-83
2022/07/27 01:40:54;;;;;;;4.97;3.40;;;10.90;99.90;;;;;;4998328;28;20037;-82
2022/07/27 01:43:21;;;;;;;4.85;3.75;;;10.80;99.90;;;;;;5001407;28;20037;-82
2022/07/27 01:45:47;;;;;;;5.15;4.43;;;10.80;99.90;;;;;;4998367;28;20090;-83
2022/07/27 01:48:13;;;;;;;5.70;4.32;;;10.80;99.90;;;;;;4993715;28;20373;-82
2022/07/27 01:50:39;;;;;;;7.10;4.63;;;10.70;99.90;;;;;;5022784;28;20039;-82
2022/07/27 01:53:04;;;;;;;6.20;4.90;;;10.70;99.90;;;;;;4997746;28;20037;-82
2022/07/27 01:55:30;;;;;;;7.07;5.45;;;10.70;99.90;;;;;;4988814;28;20036;-82
2022/07/27 01:57:56;;;;;;;8.32;5.85;;;10.60;99.90;;;;;;4994286;28;20033;-82
2022/07/27 02:00:22;;;;;;;6.53;5.82;;;10.60;99.90;;;;;;5005170;28;20126;-82
2022/07/27 02:07:50;;;;;;;9.30;5.93;;;10.50;99.90;;;;;;5027502;28;20046;-81
2022/07/27 02:10:16;;;;;;;8.77;6.45;;;10.40;99.90;;;;;;5009236;28;20103;-81
2022/07/27 02:12:43;;;;;;;7.38;6.13;;;10.40;99.90;;;;;;5014021;28;20038;-81
2022/07/27 02:15:14;;;;;;;10.43;6.28;;;10.30;99.90;;;;;;5001330;28;20033;-81
2022/07/27 02:17:41;;;;;;;9.60;5.95;;;10.30;99.90;;;;;;5009100;28;20458;-81
2022/07/27 02:30:29;;;;;;;7.72;6.32;;;10.20;99.90;;;;;;5830466;22;20053;-82
2022/07/27 02:32:54;;;;;;;10.85;7.72;;;10.20;99.90;;;;;;5019993;28;20091;-82
2022/07/27 02:35:20;;;;;;;8.82;6.97;;;10.20;99.90;;;;;;5036072;28;20055;-82
2022/07/27 02:37:47;;;;;;;10.30;7.28;;;10.20;99.90;;;;;;5037356;28;20029;-82
2022/07/27 02:40:15;;;;;;;9.32;7.30;;;10.20;99.90;;;;;;5025507;28;20040;-82
2022/07/27 02:42:41;;;;;;;8.18;6.20;;;10.10;99.90;;;;;;5057660;28;20044;-82
2022/07/27 02:45:08;;;;;;;8.20;6.47;;;10.10;99.90;;;;;;5046184;28;20044;-82
2022/07/27 02:47:34;;;;;;;8.45;6.20;;;10.10;99.90;;;;;;5032476;28;20123;-82
2022/07/27 02:50:00;;;;;;;7.50;5.40;;;10.20;99.90;;;;;;5040695;28;20455;-82
2022/07/27 02:52:26;;;;;;;7.10;5.60;;;10.00;99.90;;;;;;5057407;28;20067;-82
2022/07/27 02:54:52;;;;;;;6.78;5.07;;;10.10;99.90;;;;;;5033065;28;20482;-83
2022/07/27 02:57:18;;;;;;;7.40;5.10;;;10.00;99.90;;;;;;5026735;28;20501;-82
2022/07/27 02:59:43;;;;;;;5.90;4.43;;;9.90;99.90;;;;;;5037081;28;20507;-82
2022/07/27 03:02:09;;;;;;;5.40;4.50;;;9.80;99.90;;;;;;5037257;28;20133;-83
2022/07/27 03:04:34;;;;;;;5.45;4.07;;;9.90;99.90;;;;;;5018811;28;20040;-83
2022/07/27 03:07:00;;;;;;;4.57;3.67;;;9.90;99.90;;;;;;5022468;28;20039;-82
2022/07/27 03:09:26;;;;;;;6.20;4.43;;;9.80;99.90;;;;;;5029227;28;20091;-83
2022/07/27 03:11:51;;;;;;;6.35;4.03;;;9.80;99.90;;;;;;5039848;28;20067;-82
2022/07/27 03:14:17;;;;;;;6.80;4.00;;;9.70;99.90;;;;;;5034722;28;20395;-82
2022/07/27 03:16:42;;;;;;;4.63;3.45;;;9.70;99.90;;;;;;5028503;28;20044;-83
2022/07/27 03:19:08;;;;;;;4.82;3.80;;;9.70;99.90;;;;;;5018865;28;20036;-83
2022/07/27 03:21:34;;;;;;;5.03;3.55;;;9.60;99.90;;;;;;5020309;28;20036;-83
2022/07/27 03:23:59;;;;;;;5.20;3.70;;;9.60;99.90;;;;;;5025682;28;20032;-83
2022/07/27 03:26:25;;;;;;;6.75;3.78;;;9.60;99.90;;;;;;5027682;28;20123;-82
2022/07/27 03:28:50;;;;;;;5.13;3.33;;;9.50;99.90;;;;;;5039713;28;20502;-83
2022/07/27 03:31:16;;;;;;;4.72;3.20;;;9.50;99.90;;;;;;5038968;28;20063;-83
2022/07/27 03:33:42;;;;;;;4.07;3.08;;;9.50;99.90;;;;;;5035754;28;20037;-83
2022/07/27 03:36:07;;;;;;;4.75;3.35;;;9.40;99.90;;;;;;5043949;28;20029;-83
2022/07/27 03:38:33;;;;;;;4.93;3.30;;;9.40;99.90;;;;;;5036840;28;20083;-82
2022/07/27 03:40:58;;;;;;;4.22;3.40;;;9.40;99.90;;;;;;5019739;28;20029;-82
2022/07/27 03:43:24;;;;;;;5.07;3.65;;;9.40;99.90;;;;;;5043293;28;20067;-82
2022/07/27 03:45:50;;;;;;;4.43;3.25;;;9.30;99.90;;;;;;5044042;28;20040;-82
2022/07/27 03:48:15;;;;;;;4.35;2.97;;;9.30;99.90;;;;;;5034284;28;20408;-82
2022/07/27 03:50:41;;;;;;;4.55;3.13;;;9.30;99.90;;;;;;5038688;28;20037;-83
2022/07/27 03:53:07;;;;;;;5.07;3.72;;;9.30;99.90;;;;;;5043296;28;20033;-82
2022/07/27 03:55:33;;;;;;;5.13;3.30;;;9.20;99.90;;;;;;5049725;28;20509;-82
2022/07/27 03:57:59;;;;;;;4.05;3.00;;;9.20;99.90;;;;;;5048521;28;20033;-82
2022/07/27 04:00:25;;;;;;;3.72;3.03;;;9.20;99.90;;;;;;5031318;28;20029;-82
2022/07/27 04:02:50;;;;;;;5.30;3.55;;;9.20;99.90;;;;;;5027933;28;20041;-82
2022/07/27 04:05:16;;;;;;;4.65;3.20;;;9.20;99.90;;;;;;5025213;28;20037;-82
2022/07/27 04:07:42;;;;;;;4.40;3.05;;;9.20;99.90;;;;;;5027930;28;20052;-82
2022/07/27 04:10:08;;;;;;;5.53;3.40;;;9.10;99.90;;;;;;5023866;28;20394;-82
2022/07/27 04:12:38;;;;;;;5.88;3.03;;;9.10;99.90;;;;;;5047580;28;20453;-82
2022/07/27 04:15:07;;;;;;;8.32;3.65;;;9.10;99.90;;;;;;5027128;28;20047;-82
2022/07/27 04:17:32;;;;;;;4.20;2.90;;;9.10;99.90;;;;;;5027270;28;20025;-83
2022/07/27 04:19:58;;;;;;;6.25;3.80;;;9.10;99.90;;;;;;5022477;28;20039;-83
2022/07/27 04:22:24;;;;;;;4.65;3.75;;;9.10;99.90;;;;;;5031442;28;20039;-82
2022/07/27 04:24:49;;;;;;;5.55;3.65;;;9.10;99.90;;;;;;5036498;28;20040;-82
2022/07/27 04:27:15;;;;;;;5.10;3.47;;;9.10;99.90;;;;;;5030457;28;20075;-82
2022/07/27 04:29:40;;;;;;;5.50;3.55;;;9.10;99.90;;;;;;5039104;28;20113;-82
2022/07/27 04:32:06;;;;;;;5.70;3.50;;;9.10;99.90;;;;;;5038961;28;20040;-82
2022/07/27 04:34:32;;;;;;;4.80;3.38;;;9.10;99.90;;;;;;5031648;28;20045;-82
2022/07/27 04:36:57;;;;;;;5.35;3.17;;;9.10;99.90;;;;;;5030345;28;20032;-82
2022/07/27 04:39:23;;;;;;;5.03;3.03;;;9.10;99.90;;;;;;5055342;28;20149;-82
2022/07/27 04:41:48;;;;;;;3.80;2.60;;;9.10;99.90;;;;;;5038779;28;20036;-83
2022/07/27 04:44:14;;;;;;;5.68;2.80;;;9.20;99.90;;;;;;5033423;28;20109;-83
2022/07/27 04:46:40;;;;;;;4.18;3.17;;;9.20;99.90;;;;;;5026368;28;20149;-83
2022/07/27 04:49:05;;;;;;;4.25;2.67;;;9.20;99.90;;;;;;5031656;28;20036;-83
2022/07/27 04:51:31;;;;;;;7.38;3.35;;;9.30;99.90;;;;;;5038610;28;20040;-83
2022/07/27 04:53:57;;;;;;;5.68;2.95;;;9.30;99.90;;;;;;5037205;28;20044;-82
2022/07/27 04:56:22;;;;;;;4.22;3.03;;;9.40;99.90;;;;;;5022926;28;20047;-83
2022/07/27 04:58:48;;;;;;;5.40;2.88;;;9.60;99.90;;;;;;5031084;28;20483;-83
2022/07/27 05:01:14;;;;;;;7.57;3.10;;;9.80;99.90;;;;;;5032750;28;20029;-83
2022/07/27 05:03:41;;;;;;;3.67;3.05;;;10.00;99.90;;;;;;5027726;28;20033;-83
2022/07/27 05:06:07;;;;;;;4.85;2.90;;;10.10;99.90;;;;;;5036505;28;20050;-83
2022/07/27 05:08:33;;;;;;;4.20;3.10;;;10.20;99.90;;;;;;5026337;28;20542;-82
2022/07/27 05:10:58;;;;;;;4.10;3.25;;;10.30;99.90;;;;;;5034899;28;20083;-82
2022/07/27 05:13:24;;;;;;;6.68;3.60;;;10.30;99.90;;;;;;5033666;28;20037;-82
2022/07/27 05:15:50;;;;;;;4.20;3.17;;;10.40;99.90;;;;;;5047933;28;20038;-82
2022/07/27 05:18:16;;;;;;;4.80;3.63;;;10.50;99.90;;;;;;5054401;28;20510;-82
2022/07/27 05:20:41;;;;;;;3.47;2.83;;;10.60;99.90;;;;;;5037852;28;20036;-82
2022/07/27 05:23:07;;;;;;;6.18;3.45;;;10.60;99.90;;;;;;5027186;28;20039;-82
2022/07/27 05:25:32;;;;;;;5.22;3.65;;;10.70;99.90;;;;;;5035659;28;20104;-82
2022/07/27 05:27:58;;;;;;;10.25;3.75;;;10.80;99.90;;;;;;5025351;28;20041;-82
2022/07/27 05:30:24;;;;;;;7.28;4.00;;;10.90;99.90;;;;;;5018150;28;20045;-82
2022/07/27 05:32:50;;;;;;;5.50;3.50;;;11.00;99.90;;;;;;5019558;28;20111;-82
2022/07/27 05:35:15;;;;;;;5.80;4.05;;;11.00;99.90;;;;;;5022064;28;20080;-82
2022/07/27 05:37:41;;;;;;;6.07;4.10;;;11.20;99.90;;;;;;5026101;28;20029;-82
2022/07/27 05:40:09;;;;;;;8.68;4.22;;;11.30;99.90;;;;;;5017938;28;20041;-82
2022/07/27 05:42:34;;;;;;;8.63;4.15;;;11.40;99.90;;;;;;5024987;28;20037;-82
2022/07/27 05:45:00;;;;;;;6.43;3.92;;;11.60;99.90;;;;;;5034668;28;20039;-82
2022/07/27 05:47:26;;;;;;;6.43;4.07;;;11.70;99.90;;;;;;5028613;28;20081;-82
2022/07/27 05:49:51;;;;;;;6.82;4.25;;;11.90;99.90;;;;;;5025361;28;20047;-82
2022/07/27 05:52:19;;;;;;;4.88;3.50;;;12.10;99.90;;;;;;5021914;28;20487;-82
2022/07/27 05:54:45;;;;;;;5.43;3.83;;;12.10;99.90;;;;;;5017360;28;20029;-82
2022/07/27 05:57:11;;;;;;;5.53;3.90;;;12.20;99.90;;;;;;5038402;28;20571;-82
2022/07/27 05:59:37;;;;;;;6.30;3.85;;;12.30;99.90;;;;;;5029132;28;20040;-82
2022/07/27 06:02:02;;;;;;;6.13;3.22;;;12.40;99.90;;;;;;5030042;28;20049;-82
2022/07/27 06:04:28;;;;;;;5.20;3.38;;;12.60;99.90;;;;;;5025587;28;20118;-82
2022/07/27 06:09:40;;;;;;;7.65;3.53;;;12.80;99.90;;;;;;5045426;28;20067;-82
2022/07/27 06:12:07;;;;;;;5.40;2.95;;;13.00;99.90;;;;;;5008579;28;20037;-82
2022/07/27 06:14:32;;;;;;;6.80;3.22;;;13.00;99.90;;;;;;5005749;28;20414;-82
2022/07/27 06:16:58;;;;;;;7.40;2.80;;;13.20;99.90;;;;;;5023007;28;20032;-82
2022/07/27 06:19:24;;;;;;;6.70;3.45;;;13.30;99.90;;;;;;5022200;28;20039;-82
2022/07/27 06:21:49;;;;;;;6.28;2.80;;;13.30;99.90;;;;;;5009036;28;20072;-82
2022/07/27 06:24:16;;;;;;;7.00;3.50;;;13.50;99.90;;;;;;5012911;28;20041;-82
2022/07/27 06:26:42;;;;;;;5.55;3.47;;;13.50;99.90;;;;;;5006460;28;20466;-82
2022/07/27 06:29:08;;;;;;;3.67;2.78;;;13.70;99.90;;;;;;5045174;28;20064;-82
2022/07/27 06:31:33;;;;;;;5.85;2.72;;;13.80;99.90;;;;;;5037040;28;20037;-82
2022/07/27 06:33:59;;;;;;;5.25;2.90;;;13.90;99.90;;;;;;5029279;28;20110;-82
2022/07/27 06:36:24;;;;;;;4.53;2.47;;;14.10;99.90;;;;;;5009488;28;20037;-82
2022/07/27 06:38:50;;;;;;;4.68;2.58;;;14.10;99.90;;;;;;5035838;28;20035;-82
2022/07/27 06:41:16;;;;;;;4.45;2.67;;;14.20;99.90;;;;;;5045265;28;20033;-83
2022/07/27 06:43:41;;;;;;;5.68;2.05;;;14.30;99.90;;;;;;5041399;28;20507;-82
2022/07/27 06:46:11;;;;;;;4.75;2.25;;;14.40;99.90;;;;;;5008732;28;20056;-82
2022/07/27 06:48:37;;;;;;;5.70;1.83;;;14.60;99.90;;;;;;5041605;28;20518;-82
2022/07/27 06:51:03;;;;;;;5.78;2.38;;;14.70;99.90;;;;;;5023870;28;20033;-82
2022/07/27 06:53:29;;;;;;;5.65;1.73;;;14.70;99.90;;;;;;5033417;28;20094;-82
2022/07/27 06:55:57;;;;;;;3.47;1.90;;;14.80;99.90;;;;;;5016357;28;20402;-82
2022/07/27 06:58:22;;;;;;;2.63;1.67;;;14.90;99.90;;;;;;5046157;28;20041;-82
2022/07/27 07:00:48;;;;;;;6.35;2.05;;;15.00;99.90;;;;;;5017462;28;20398;-82
2022/07/27 07:03:14;;;;;;;5.72;1.67;;;15.10;99.90;;;;;;5039927;28;20514;-82
2022/07/27 07:05:45;;;;;;;5.07;2.25;;;15.20;99.90;;;;;;5043378;28;20033;-82
2022/07/27 07:08:12;;;;;;;7.25;2.25;;;15.20;99.90;;;;;;5024505;28;20048;-82
2022/07/27 07:10:39;;;;;;;6.75;1.80;;;15.30;99.90;;;;;;5026992;28;20060;-82
2022/07/27 07:13:06;;;;;;;4.22;1.58;;;15.40;99.90;;;;;;5029173;28;20028;-82
2022/07/27 07:15:33;;;;;;;4.45;1.70;;;15.50;99.90;;;;;;5029385;28;20399;-82
2022/07/27 07:18:05;;;;;;;4.22;1.63;;;15.50;99.90;;;;;;5030023;28;20403;-82
2022/07/27 07:25:49;;;;;;;4.43;1.40;;;15.60;99.90;;;;;;5012854;28;20042;-82
2022/07/27 07:29:01;;;;;;;4.93;1.58;;;15.50;99.90;;;;;;4973531;28;20091;-82
2022/07/27 07:31:33;;;;;;;4.07;1.42;;;15.50;99.90;;;;;;4920966;29;20031;-82
2022/07/27 07:34:02;;;;;;;3.25;1.50;;;15.40;99.90;;;;;;4922656;29;20051;-82
2022/07/27 07:36:28;;;;;;;4.10;1.27;;;15.40;99.90;;;;;;4951070;28;20058;-82
2022/07/27 07:49:15;;;;;;;5.55;1.60;;;15.50;99.90;;;;;;5170987;22;20046;-83
2022/07/27 07:51:48;;;;;;;4.65;1.30;;;15.60;99.90;;;;;;4997271;28;20040;-82
2022/07/27 07:54:16;;;;;;;;;;;15.60;99.90;;;;;;4994464;28;20120;-84
2022/07/27 07:56:41;;;;;;;5.03;1.30;;;15.60;99.90;;;;;;5009116;28;19968;-83
2022/07/27 07:59:07;;;;;;;2.72;1.25;;;15.80;99.90;;;;;;5015189;28;20068;-86
2022/07/27 08:01:33;;;;;;;4.50;1.13;;;15.90;99.90;;;;;;4991460;28;20034;-84
2022/07/27 08:03:58;;;;;;;3.78;1.10;;;16.10;99.90;;;;;;4991509;28;20029;-85
2022/07/27 08:06:24;;;;;;;3.30;1.15;;;16.20;99.90;;;;;;4998703;28;20091;-86
2022/07/27 08:08:50;;;;;;;4.70;1.10;;;16.40;99.90;;;;;;4997305;28;20038;-85
2022/07/27 08:11:15;;;;;;;4.63;1.13;;;16.70;99.90;;;;;;4993151;28;20042;-85
2022/07/27 08:13:41;;;;;;;3.70;1.20;;;16.90;99.90;;;;;;4999263;28;20061;-85
2022/07/27 08:16:06;;;;;;;3.25;0.93;;;17.00;99.90;;;;;;5014780;28;20029;-88
2022/07/27 08:18:32;;;;;;;1.73;1.02;;;17.30;99.90;;;;;;4990693;28;20037;-88
2022/07/27 08:20:58;;;;;;;4.55;0.85;;;17.90;99.90;;;;;;5000003;28;20431;-88
2022/07/27 08:23:25;;;;;;;3.67;0.73;;;18.50;99.90;;;;;;4999862;28;20124;-87
2022/07/27 08:25:51;;;;;;;3.92;0.75;;;18.90;99.90;;;;;;4999543;28;20037;-89
2022/07/27 08:28:17;;;;;;;2.53;0.70;;;19.60;99.90;;;;;;4999521;28;20037;-88
2022/07/27 08:30:42;;;;;;;1.58;0.73;;;20.20;99.90;;;;;;5000144;28;20110;-88
2022/07/27 08:33:08;;;;;;;2.97;0.77;;;20.90;99.90;;;;;;5010938;28;20315;-87
2022/07/27 08:35:34;;;;;;;2.28;0.80;;;21.50;99.90;;;;;;5017542;28;20032;-88
2022/07/27 08:38:02;;;;;;;2.88;0.68;;;22.20;99.90;;;;;;5010827;28;20030;-87
2022/07/27 08:40:28;;;;;;;2.05;0.63;;;22.90;99.90;;;;;;5015787;28;20057;-86
2022/07/27 08:42:53;;;;;;;2.72;0.50;;;23.30;99.90;;;;;;4998984;28;20045;-86
2022/07/27 08:45:20;;;;;;;2.03;0.55;;;23.70;99.90;;;;;;4998303;28;20087;-88
2022/07/27 08:47:46;;;;;;;2.33;0.55;;;24.10;99.90;;;;;;4997647;28;20087;-85
2022/07/27 08:50:23;;;;;;;3.05;0.60;;;24.30;99.90;;;;;;4996613;28;20033;-86
2022/07/27 08:53:04;;;;;;;2.05;0.47;;;24.50;99.90;;;;;;5010775;28;20050;-86
2022/07/27 08:55:35;;;;;;;2.83;0.50;;;24.60;99.90;;;;;;4991041;28;20117;-87
2022/07/27 08:58:01;;;;;;;2.45;0.70;;;24.60;99.90;;;;;;4998717;28;20030;-87
2022/07/27 09:00:28;;;;;;;3.28;0.60;;;24.60;99.90;;;;;;5014240;28;20056;-86
2022/07/27 09:02:54;;;;;;;1.67;0.57;;;24.50;99.90;;;;;;4999475;28;20380;-86
2022/07/27 09:05:22;;;;;;;3.10;0.70;;;24.50;99.90;;;;;;4998770;28;20077;-86
2022/07/27 09:07:48;;;;;;;3.38;0.75;;;24.80;99.90;;;;;;5015361;28;20471;-87
2022/07/27 09:10:34;;;;;;;3.83;0.80;;;25.20;99.60;;;;;;5014453;28;20124;-87
2022/07/27 09:13:28;;;;;;;0.90;0.35;;;25.40;95.40;;;;;;5007891;28;20407;-86
2022/07/27 09:15:57;;;;;;;2.00;0.55;;;25.40;95.80;;;;;;4998917;28;20510;-86
2022/07/27 09:18:26;;;;;;;1.42;0.50;;;25.50;99.40;;;;;;4998920;28;20399;-86
2022/07/27 09:21:13;;;;;;;2.42;0.52;;;25.70;97.90;;;;;;4998130;28;20034;-85
2022/07/27 09:23:43;;;;;;;1.65;0.60;;;25.50;93.80;;;;;;5014981;28;20403;-86
2022/07/27 09:26:21;;;;;;;2.78;0.60;;;25.30;95.20;;;;;;4998679;28;20041;-86
2022/07/27 09:29:01;;;;;;;1.98;0.60;;;24.80;92.50;;;;;;4988659;28;20045;-87
2022/07/27 09:31:27;;;;;;;1.67;0.60;;;24.10;92.60;;;;;;4990272;28;20095;-87
2022/07/27 09:33:55;;;;;;;1.23;0.65;;;23.40;94.20;;;;;;4998314;28;20114;-85
2022/07/27 09:36:23;;;;;;;2.22;0.77;;;22.60;93.30;;;;;;4998508;28;20135;-87
2022/07/27 09:39:07;;;;;;;3.33;0.77;;;22.10;93.90;;;;;;4989367;28;20045;-86
2022/07/27 09:41:50;;;;;;;1.48;0.50;;;22.00;93.00;;;;;;4998531;28;20487;-86
2022/07/27 09:44:16;;;;;;;2.50;0.60;;;22.50;90.00;;;;;;4998470;28;20049;-86
2022/07/27 09:46:45;;;;;;;1.50;0.73;;;23.10;88.50;;;;;;5014257;28;20199;-86
2022/07/27 09:49:32;;;;;;;1.25;0.60;;;23.60;85.30;;;;;;5014333;28;20407;-87
2022/07/27 09:51:59;;;;;;;1.80;0.60;;;23.70;77.20;;;;;;4998556;28;20056;-86
2022/07/27 09:54:25;;;;;;;0.93;0.50;;;23.20;79.50;;;;;;4997909;28;20040;-85
2022/07/27 09:57:02;;;;;;;1.75;0.73;;;22.70;80.30;;;;;;4994317;28;20030;-89
2022/07/27 09:59:28;;;;;;;3.00;0.70;;;22.20;78.90;;;;;;4994879;28;20380;-86
2022/07/27 10:01:55;;;;;;;1.85;0.73;;;21.80;81.30;;;;;;4991866;28;20041;-85
2022/07/27 10:04:22;;;;;;;2.22;0.90;;;21.30;80.20;;;;;;4998237;28;20059;-86
2022/07/27 10:06:48;;;;;;;0.82;0.50;;;20.80;80.20;;;;;;4998034;28;20029;-86
2022/07/27 10:09:14;;;;;;;3.08;0.70;;;20.40;81.80;;;;;;4998246;28;20041;-88
2022/07/27 10:11:39;;;;;;;2.70;1.00;;;20.10;83.40;;;;;;5013602;28;20030;-85
2022/07/27 10:14:05;;;;;;;3.58;1.20;;;19.90;85.50;;;;;;4997100;28;20318;-86
2022/07/27 10:16:32;;;;;;;3.38;1.02;;;19.60;84.50;;;;;;4997797;28;20088;-86
2022/07/27 10:19:04;;;;;;;1.15;0.90;;;19.50;87.60;;;;;;4997756;28;20048;-86
2022/07/27 10:21:35;;;;;;;2.05;0.82;;;19.40;90.30;;;;;;4997981;28;20092;-86
2022/07/27 10:24:09;;;;;;;3.20;0.80;;;19.40;91.90;;;;;;4997426;28;20151;-86
2022/07/27 10:26:40;;;;;;;4.25;1.00;;;19.40;91.20;;;;;;4989247;28;20065;-85
2022/07/27 10:29:16;;;;;;;2.88;0.80;;;19.40;91.70;;;;;;4997494;28;20037;-86
2022/07/27 10:31:54;;;;;;;2.00;0.80;;;19.40;91.80;;;;;;4997897;28;20041;-88
2022/07/27 10:34:36;;;;;;;4.50;0.90;;;19.80;91.20;;;;;;4997335;28;20402;-87
2022/07/27 10:37:16;;;;;;;2.45;0.90;;;20.50;87.00;;;;;;4987850;28;20044;-86
2022/07/27 10:39:51;;;;;;;4.03;0.88;;;21.00;85.90;;;;;;4997893;28;20029;-85
2022/07/27 10:42:21;;;;;;;2.00;0.90;;;21.20;86.30;;;;;;5000622;28;20048;-85
2022/07/27 10:44:59;;;;;;;2.47;0.60;;;21.40;84.80;;;;;;5015424;28;20105;-82
2022/07/27 10:47:37;;;;;;;2.05;0.80;;;21.40;84.90;;;;;;4998882;28;20033;-82
2022/07/27 10:50:14;;;;;;;2.22;0.73;;;21.20;80.30;;;;;;4994352;28;20385;-82
2022/07/27 10:52:44;;;;;;;1.95;0.73;;;20.80;81.30;;;;;;5000296;28;20042;-82
2022/07/27 10:55:28;;;;;;;1.08;0.70;;;20.50;81.00;;;;;;5017193;28;20042;-82
2022/07/27 11:13:17;;;;;;;1.65;0.68;;;21.10;80.70;;;;;;4961037;28;20037;-82
2022/07/27 11:17:07;;;;;;;2.35;0.90;;;21.30;83.20;;;;;;4894978;28;20043;-82
2022/07/27 11:19:50;;;;;;;1.73;0.75;;;21.80;82.50;;;;;;4965585;28;20038;-82
2022/07/27 11:32:40;;;;;;;1.13;0.50;;;23.60;75.20;;;;;;5322267;22;20041;-83
2022/07/27 11:35:13;;;;;;;3.40;0.70;;;23.90;72.30;;;;;;5010927;28;20045;-82
2022/07/27 11:37:39;;;;;;;3.58;0.70;;;24.30;71.20;;;;;;5007984;28;20087;-83
2022/07/27 11:40:05;;;;;;;1.02;0.60;;;24.70;72.60;;;;;;5011807;28;20025;-87
2022/07/27 11:42:38;;;;;;;2.95;0.60;;;24.80;71.10;;;;;;4983462;28;20044;-85
2022/07/27 11:45:05;;;;;;;2.00;0.60;;;24.50;69.60;;;;;;4987978;28;20476;-87
2022/07/27 11:47:32;;;;;;;0.93;0.50;;;24.20;69.20;;;;;;4972450;28;20038;-85
2022/07/27 11:50:06;;;;;;;0.95;0.65;;;23.80;69.20;;;;;;4993999;28;20041;-84
2022/07/27 11:52:31;;;;;;;1.90;0.70;;;23.60;71.30;;;;;;5007674;28;20464;-90
2022/07/27 11:54:57;;;;;;;2.33;0.80;;;23.50;72.10;;;;;;4982149;28;20080;-85
2022/07/27 11:57:31;;;;;;;4.32;0.75;;;23.60;71.70;;;;;;4991373;28;20034;-86
2022/07/27 11:59:56;;;;;;;3.25;0.85;;;24.00;69.40;;;;;;5002245;28;20103;-87
2022/07/27 12:02:24;;;;;;;1.55;0.45;;;24.00;66.00;;;;;;4984701;28;20507;-86
2022/07/27 12:04:52;;;;;;;3.40;0.93;;;23.60;65.10;;;;;;4996827;28;20045;-87
2022/07/27 12:07:20;;;;;;;2.38;0.77;;;23.10;66.20;;;;;;4996926;28;20046;-87
2022/07/27 12:10:05;;;;;;;2.10;0.80;;;22.80;67.40;;;;;;4996723;28;20053;-88
2022/07/27 12:12:33;;;;;;;1.95;0.68;;;22.60;68.20;;;;;;4996556;28;20042;-88
2022/07/27 12:15:14;;;;;;;3.13;0.65;;;22.70;68.70;;;;;;4996569;28;20111;-89
2022/07/27 12:17:42;;;;;;;1.80;0.50;;;22.60;69.60;;;;;;4993691;28;20088;-86
2022/07/27 12:20:13;;;;;;;2.58;0.60;;;22.60;69.40;;;;;;4977338;28;20037;-87
2022/07/27 12:22:45;;;;;;;1.35;0.60;;;22.40;69.50;;;;;;4988324;28;20044;-87
2022/07/27 12:25:17;;;;;;;1.80;0.73;;;22.30;69.60;;;;;;4974693;28;20042;-88
2022/07/27 12:28:03;;;;;;;1.60;0.73;;;22.00;70.00;;;;;;4977081;28;20042;-87
2022/07/27 12:30:39;;;;;;;2.45;0.60;;;21.60;70.20;;;;;;4973053;28;20563;-87
2022/07/27 12:33:07;;;;;;;1.98;0.70;;;21.20;70.40;;;;;;4968602;28;20089;-87
2022/07/27 12:35:47;;;;;;;1.35;0.55;;;20.80;72.20;;;;;;4977339;28;20042;-87
2022/07/27 12:38:12;;;;;;;3.08;0.70;;;20.60;72.70;;;;;;4971767;28;20061;-87
2022/07/27 12:40:50;;;;;;;1.13;0.70;;;20.50;73.00;;;;;;4978252;28;20428;-87
2022/07/27 12:43:18;;;;;;;1.17;0.80;;;20.30;73.00;;;;;;4990206;28;20038;-88
2022/07/27 12:45:44;;;;;;;1.38;0.50;;;20.20;72.20;;;;;;4971758;28;20504;-87
2022/07/27 12:48:10;;;;;;;0.82;0.50;;;20.00;72.90;;;;;;4973963;28;20041;-87
2022/07/27 12:50:38;;;;;;;1.63;0.60;;;19.90;72.60;;;;;;4977994;28;20044;-87
2022/07/27 12:53:03;;;;;;;1.98;0.90;;;19.90;73.40;;;;;;4971343;28;20030;-87
2022/07/27 12:55:29;;;;;;;1.52;0.50;;;19.90;73.30;;;;;;4978811;28;20030;-87
2022/07/27 12:57:55;;;;;;;2.30;0.70;;;20.00;73.20;;;;;;4976639;28;20064;-88
2022/07/27 13:00:24;;;;;;;2.85;0.77;;;20.00;73.60;;;;;;4971843;28;20373;-86
2022/07/27 13:02:51;;;;;;;3.85;1.77;;;20.00;72.10;;;;;;4995849;28;20034;-87
2022/07/27 13:05:18;;;;;;;3.42;0.70;;;20.00;71.70;;;;;;4992040;28;20121;-86
2022/07/27 13:07:46;;;;;;;1.05;0.50;;;20.00;72.20;;;;;;4993080;28;20080;-87
2022/07/27 13:10:13;;;;;;;3.38;0.60;;;20.10;72.70;;;;;;4981269;28;20034;-89
2022/07/27 13:12:40;;;;;;;0.73;0.50;;;20.20;72.10;;;;;;4967067;28;20039;-88
2022/07/27 13:15:07;;;;;;;3.70;0.75;;;20.40;71.50;;;;;;4960469;28;20046;-88
2022/07/27 13:17:34;;;;;;;1.95;0.65;;;20.50;70.70;;;;;;4959904;28;20042;-88
2022/07/27 13:20:01;;;;;;;3.53;0.60;;;20.80;72.50;;;;;;4966143;28;20034;-88
2022/07/27 13:22:27;;;;;;;1.75;0.60;;;21.30;72.50;;;;;;4981532;28;20040;-89
2022/07/27 13:24:53;;;;;;;1.30;0.50;;;22.10;72.50;;;;;;4990916;28;20152;-88
2022/07/27 13:27:18;;;;;;;3.15;0.93;;;22.70;69.50;;;;;;4996991;28;20140;-90
2022/07/27 13:29:44;;;;;;;2.88;0.60;;;23.00;69.10;;;;;;4981724;28;20049;-90
2022/07/27 13:32:10;;;;;;;2.50;0.68;;;23.50;70.50;;;;;;4980061;28;20084;-87
2022/07/27 13:34:35;;;;;;;2.03;0.80;;;23.90;69.80;;;;;;5001673;28;20033;-90
2022/07/27 13:37:01;;;;;;;1.33;0.70;;;24.10;68.70;;;;;;4992259;28;20034;-88
2022/07/27 13:39:27;;;;;;;1.67;0.82;;;24.20;67.50;;;;;;4983068;28;20550;-88
2022/07/27 13:41:55;;;;;;;3.20;0.60;;;24.10;66.90;;;;;;4989790;28;20092;-89
2022/07/27 13:44:22;;;;;;;1.60;0.50;;;24.00;65.80;;;;;;4994183;28;20518;-86
2022/07/27 13:46:49;;;;;;;2.88;0.60;;;23.90;65.00;;;;;;5010642;28;20053;-87
2022/07/27 13:49:18;;;;;;;2.50;0.50;;;24.00;64.50;;;;;;5010180;28;20037;-87
2022/07/27 13:51:44;;;;;;;2.75;0.45;;;23.80;65.80;;;;;;4968933;28;20381;-85
2022/07/27 13:54:10;;;;;;;5.13;0.80;;;23.50;67.40;;;;;;4976064;28;20503;-88